Terminal Aerodrome Forecast
Issued by NWS

Home | Current Version | Previous Version | Text Only | Print | Product List | Glossary On
Versions: 1 2 3 4 5 6 7 8 9 10 11 12 13 14 15 16 17 18 19 20 21 22 23 24 25 26 27 28 29 30 31 32
898
FTUS43 KDVN 161121
TAFCID
TAF
KCID 161121Z 1612/1712 09007KT 3SM BR SCT250
     FM161400 12006KT P6SM SCT025 BKN120
     FM161900 15008KT P6SM VCSH BKN050
     FM170000 17009KT 2SM TSRA BR BKN030CB
     FM170500 16005KT 4SM BR VCSH BKN025=

USA.gov is the U.S. government's official web portal to all federal, state and local government web resources and services.